map of OTH home
OTH - Airport
Location
City:  North Bend, Oregon, United States
Name:Southwest Oregon Regional
ICAO:KOTH
IATA:OTH
FAA LID:OTH

Details
Type:Airport (Part 139 Class I)
Use:Public/Civil
Latitude:4325'01"N (43.416944)
Longitude:12414'49"W (-124.247027)
Datum:WGS 1984
Elevation:17 ft (5 m)
Variation:14.94E (WMM2015 magnetic declination)
-0.12 annual change
Runways:2
Longest:5980 × 150 ft (1823 × 45.5 m), paved

Time
Time Zone:UTC-8 (DST-7)
Local Time:

Weather
METAR:KOTH 160656Z AUTO 12006KT 8SM CLR 09/05 RMK AO2 SLPNO T00890050 PNO $
TAF:KOTH 160520Z 1606/1706 13005KT P6SM SKC
FM162100 31007KT P6SM SKC
FM170300 13003KT P6SM SKC

Related Locations
Nearby:
Farthest:FTU: 11070 mi / 17816 km
Tolagnaro [Maurillac Airport (Fort Dauphin Airport)], MG

Find:

   beyond  
but within

Other Information
Maps:
NOTAMs:
Links:
Sources:

  
  • flag of United States
  • flag of Oregon
  

Airport Diagram

Airport diagram for OTH

Airport diagram PDF

Sectional Chart

Flight Planning
at skyvector.com

Satellite Image

Google Maps Satellite view

 

Copyright © 2004-2018 Karl L. Swartz. All rights reserved.
The Great Circle Mapper name and logo are trademarks of the Great Circle Mapper.
All other trademarks mentioned herein belong to their respective owners.
Please see credits for attibutions and further copyright information.

  Follow gcmap on Facebook Follow gcmap on Twitter Follow gcmap on Google+ GCmap on LinkedIn

hCard Microformat

Geo Microformat